createdAt,value
2018-09-20T00:00:57.405Z,65.80
2018-09-20T00:03:29.195Z,62.40
2018-09-20T00:06:00.862Z,61.40
2018-09-20T00:08:34.345Z,59.00
2018-09-20T00:11:06.065Z,59.00
2018-09-20T00:13:37.928Z,62.80
2018-09-20T00:16:09.543Z,61.00
2018-09-20T00:18:41.299Z,60.40
2018-09-20T00:21:13.075Z,64.40
2018-09-20T00:23:44.925Z,62.60
2018-09-20T00:26:16.576Z,59.40
2018-09-20T00:28:48.430Z,59.40
2018-09-20T00:31:20.043Z,59.80
2018-09-20T00:33:51.965Z,64.80
2018-09-20T00:36:23.625Z,66.40
2018-09-20T00:38:55.601Z,62.80
2018-09-20T00:41:27.357Z,63.40
2018-09-20T00:43:59.174Z,65.00
2018-09-20T00:46:30.748Z,65.80
2018-09-20T00:49:02.420Z,69.40
2018-09-20T00:51:34.090Z,65.80
2018-09-20T00:54:05.972Z,66.80
2018-09-20T00:56:37.669Z,66.80
2018-09-20T00:59:09.436Z,52.80
2018-09-20T01:01:41.363Z,51.40
2018-09-20T01:04:13.212Z,61.00
2018-09-20T01:06:44.923Z,68.60
2018-09-20T01:09:17.840Z,69.60
2018-09-20T01:11:49.652Z,72.60
2018-09-20T01:14:21.421Z,78.40
2018-09-20T01:16:53.087Z,74.40
2018-09-20T01:19:24.754Z,76.00
2018-09-20T01:21:56.841Z,72.80
2018-09-20T01:24:28.701Z,77.20
2018-09-20T01:27:00.423Z,72.80
2018-09-20T01:29:32.069Z,74.40
2018-09-20T01:32:03.693Z,77.00
2018-09-20T01:34:35.479Z,75.20
2018-09-20T01:37:07.263Z,69.60
2018-09-20T01:39:39.517Z,74.20
2018-09-20T01:42:10.933Z,72.00
2018-09-20T01:44:42.758Z,72.20
2018-09-20T01:47:14.700Z,70.60
2018-09-20T01:49:46.407Z,74.00
2018-09-20T01:52:18.116Z,51.20
2018-09-20T01:54:49.920Z,68.20
2018-09-20T01:57:21.806Z,78.20
2018-09-20T01:59:53.554Z,82.80
2018-09-20T02:02:25.211Z,77.80
2018-09-20T02:04:57.093Z,86.60
2018-09-20T02:07:28.892Z,83.20
2018-09-20T02:10:00.579Z,83.00
2018-09-20T02:12:32.180Z,83.80
2018-09-20T02:15:04.011Z,82.40
2018-09-20T02:17:35.645Z,84.80
2018-09-20T02:20:07.365Z,84.00
2018-09-20T02:22:38.949Z,85.20
2018-09-20T02:25:10.859Z,78.80
2018-09-20T02:27:42.539Z,79.40
2018-09-20T02:30:14.293Z,73.60
2018-09-20T02:32:46.092Z,76.40
2018-09-20T02:35:18.259Z,73.80
2018-09-20T02:37:49.987Z,76.40
2018-09-20T02:40:21.842Z,76.20
2018-09-20T02:42:53.353Z,73.80
2018-09-20T02:45:25.232Z,73.20
2018-09-20T02:47:56.880Z,78.00
2018-09-20T02:50:28.658Z,75.00
2018-09-20T02:53:00.155Z,72.40
2018-09-20T02:55:31.742Z,74.20
2018-09-20T02:58:03.873Z,78.20
2018-09-20T03:00:35.441Z,77.40
2018-09-20T03:03:07.138Z,75.00
2018-09-20T03:05:39.138Z,83.60
2018-09-20T03:08:10.886Z,83.80
2018-09-20T03:10:42.619Z,81.60
2018-09-20T03:13:14.419Z,81.80
2018-09-20T03:15:46.256Z,78.40
2018-09-20T03:18:17.909Z,81.40
2018-09-20T03:20:49.692Z,78.40
2018-09-20T03:23:21.510Z,78.00
2018-09-20T03:25:53.026Z,74.40
2018-09-20T03:28:24.723Z,77.00
2018-09-20T03:30:56.833Z,77.60
2018-09-20T03:33:29.124Z,73.40
2018-09-20T03:36:00.943Z,75.00
2018-09-20T03:38:32.367Z,75.40
2018-09-20T03:41:04.180Z,77.40
2018-09-20T03:43:35.723Z,73.40
2018-09-20T03:46:07.502Z,71.40
2018-09-20T03:48:39.205Z,73.60
2018-09-20T03:51:11.561Z,65.00
2018-09-20T03:53:43.066Z,61.20
2018-09-20T03:56:14.999Z,65.20
2018-09-20T03:58:47.150Z,67.60
2018-09-20T04:01:19.312Z,69.80
2018-09-20T04:03:51.397Z,68.60
2018-09-20T04:06:23.038Z,70.60
2018-09-20T04:08:54.974Z,67.60
2018-09-20T04:11:27.149Z,66.80
2018-09-20T04:13:58.528Z,65.40
2018-09-20T04:16:30.224Z,66.80
2018-09-20T04:19:01.681Z,63.00
2018-09-20T04:21:34.672Z,64.60
2018-09-20T04:24:07.494Z,67.40
2018-09-20T04:26:39.466Z,66.20
2018-09-20T04:29:11.177Z,66.20
2018-09-20T04:31:43.166Z,70.00
2018-09-20T04:34:14.970Z,67.80
2018-09-20T04:36:46.829Z,65.60
2018-09-20T04:39:18.449Z,65.40
2018-09-20T04:41:50.577Z,67.20
2018-09-20T04:44:22.641Z,69.20
2018-09-20T04:46:54.543Z,63.00
2018-09-20T04:49:26.366Z,65.00
2018-09-20T04:51:58.153Z,64.20
2018-09-20T04:54:29.890Z,59.20
2018-09-20T04:57:01.816Z,61.40
2018-09-20T04:59:34.198Z,63.80
2018-09-20T05:02:06.303Z,65.40
2018-09-20T05:04:38.136Z,63.80
2018-09-20T05:07:09.934Z,62.40
2018-09-20T05:09:41.563Z,60.20
2018-09-20T05:12:13.431Z,63.00
2018-09-20T05:14:45.119Z,65.00
2018-09-20T05:17:17.120Z,62.60
2018-09-20T05:19:49.013Z,63.40
2018-09-20T05:22:21.192Z,65.80
2018-09-20T05:24:53.288Z,61.80
2018-09-20T05:27:24.911Z,64.60
2018-09-20T05:29:56.648Z,62.40
2018-09-20T05:32:28.529Z,66.80
2018-09-20T05:35:00.405Z,66.60
2018-09-20T05:37:32.752Z,66.20
2018-09-20T05:40:04.830Z,65.40
2018-09-20T05:42:36.849Z,73.00
2018-09-20T05:45:08.640Z,63.20
2018-09-20T05:47:40.811Z,64.60
2018-09-20T05:50:12.600Z,64.60
2018-09-20T05:52:45.398Z,64.80
2018-09-20T05:55:17.640Z,66.60
2018-09-20T05:57:49.393Z,63.60
2018-09-20T06:00:21.662Z,68.00
2018-09-20T06:02:53.698Z,63.80
2018-09-20T06:05:25.466Z,68.60
2018-09-20T06:07:57.204Z,65.80
2018-09-20T06:10:29.112Z,68.80
2018-09-20T06:13:01.129Z,61.00
2018-09-20T06:15:33.310Z,63.80
2018-09-20T06:18:05.113Z,63.00
2018-09-20T06:20:37.087Z,63.80
2018-09-20T06:23:08.633Z,62.00
2018-09-20T06:25:40.311Z,64.80
2018-09-20T06:28:12.085Z,66.00
2018-09-20T06:30:43.797Z,63.40
2018-09-20T06:33:15.550Z,61.60
2018-09-20T06:35:47.333Z,65.00
2018-09-20T06:38:19.065Z,61.60
2018-09-20T06:40:50.708Z,62.40
2018-09-20T06:43:22.708Z,61.20
2018-09-20T06:45:54.684Z,63.40
2018-09-20T06:48:26.575Z,59.80
2018-09-20T06:50:58.047Z,59.00
2018-09-20T06:53:29.973Z,60.40
2018-09-20T06:56:02.000Z,61.80
2018-09-20T06:58:33.947Z,59.40
2018-09-20T07:01:05.749Z,61.60
2018-09-20T07:03:37.800Z,59.60
2018-09-20T07:06:09.637Z,57.60
2018-09-20T07:08:41.731Z,56.80
2018-09-20T07:11:14.687Z,58.20
2018-09-20T07:13:46.288Z,59.00
2018-09-20T07:16:18.172Z,60.40
2018-09-20T07:18:50.240Z,60.00
2018-09-20T07:21:22.116Z,61.80
2018-09-20T07:23:54.110Z,57.80
2018-09-20T07:26:26.155Z,61.40
2018-09-20T07:28:58.058Z,57.20
2018-09-20T07:31:29.816Z,58.00
2018-09-20T07:34:01.545Z,59.60
2018-09-20T07:36:33.399Z,55.80
2018-09-20T07:39:05.851Z,56.20
2018-09-20T07:41:38.297Z,58.20
2018-09-20T07:44:10.617Z,56.80
2018-09-20T07:46:42.418Z,57.80
2018-09-20T07:49:14.538Z,54.80
2018-09-20T07:51:46.263Z,58.60
2018-09-20T07:54:17.985Z,57.40
2018-09-20T07:56:49.523Z,60.20
2018-09-20T07:59:21.363Z,54.60
2018-09-20T08:01:53.044Z,56.20
2018-09-20T08:04:24.959Z,56.40
2018-09-20T08:06:56.981Z,57.40
2018-09-20T08:09:28.752Z,60.20
2018-09-20T08:12:00.720Z,53.80
2018-09-20T08:14:32.362Z,58.40
2018-09-20T08:17:03.963Z,60.00
2018-09-20T08:19:35.876Z,60.80
2018-09-20T08:22:07.450Z,59.80
2018-09-20T08:24:39.393Z,59.20
2018-09-20T08:27:11.363Z,61.40
2018-09-20T08:29:43.310Z,57.60
2018-09-20T08:32:15.324Z,55.20
2018-09-20T08:34:47.283Z,61.00
2018-09-20T08:37:19.463Z,58.20
2018-09-20T08:39:51.557Z,58.00
2018-09-20T08:42:23.761Z,59.00
2018-09-20T08:44:55.784Z,53.60
2018-09-20T08:47:28.667Z,57.60
2018-09-20T08:50:00.880Z,61.80
2018-09-20T08:52:32.880Z,59.60
2018-09-20T08:55:05.652Z,57.80
2018-09-20T08:57:42.087Z,60.00
2018-09-20T09:00:14.110Z,61.00
2018-09-20T09:02:46.119Z,56.60
2018-09-20T09:05:19.288Z,56.60
2018-09-20T09:07:51.251Z,58.20
2018-09-20T09:10:24.859Z,46.00
2018-09-20T09:12:56.424Z,56.60
2018-09-20T09:15:28.255Z,59.20
2018-09-20T09:18:00.336Z,59.20
2018-09-20T09:20:32.206Z,57.80
2018-09-20T09:23:04.911Z,56.00
2018-09-20T09:25:36.970Z,58.40
2018-09-20T09:28:09.069Z,60.60
2018-09-20T09:30:41.393Z,60.60
2018-09-20T09:33:13.301Z,62.00
2018-09-20T09:35:45.404Z,62.60
2018-09-20T09:38:17.502Z,60.20
2018-09-20T09:40:49.385Z,58.80
2018-09-20T09:43:21.400Z,58.60
2018-09-20T09:45:53.229Z,61.60
2018-09-20T09:48:24.970Z,62.00
2018-09-20T09:50:56.932Z,60.20
2018-09-20T09:53:28.868Z,58.00
2018-09-20T09:56:00.666Z,61.80
2018-09-20T09:58:32.500Z,62.60
2018-09-20T10:01:04.260Z,60.40
2018-09-20T10:03:35.954Z,60.00
2018-09-20T10:06:08.181Z,61.40
2018-09-20T10:08:40.076Z,63.00
2018-09-20T10:11:12.164Z,62.00
2018-09-20T10:13:43.687Z,59.20
2018-09-20T10:16:15.690Z,60.40
2018-09-20T10:18:47.539Z,58.20
2018-09-20T10:21:19.415Z,56.80
2018-09-20T10:23:51.043Z,57.40
2018-09-20T10:26:23.070Z,59.80
2018-09-20T10:28:54.789Z,61.20
2018-09-20T10:31:26.459Z,59.20
2018-09-20T10:33:58.433Z,61.60
2018-09-20T10:36:30.539Z,55.80
2018-09-20T10:39:02.194Z,59.60
2018-09-20T10:41:34.148Z,59.80
2018-09-20T10:44:06.166Z,56.80
2018-09-20T10:46:38.168Z,58.40
2018-09-20T10:49:09.894Z,57.00
2018-09-20T10:51:42.077Z,57.60
2018-09-20T10:54:14.064Z,57.00
2018-09-20T10:56:45.861Z,56.80
2018-09-20T10:59:17.663Z,59.40
2018-09-20T11:01:49.800Z,55.00
2018-09-20T11:04:22.469Z,54.00
2018-09-20T11:06:54.341Z,56.40
2018-09-20T11:09:26.441Z,57.20
2018-09-20T11:11:58.590Z,56.60
2018-09-20T11:14:30.112Z,55.60
2018-09-20T11:17:02.004Z,55.20
2018-09-20T11:19:34.038Z,55.00
2018-09-20T11:22:05.806Z,53.60
2018-09-20T11:24:38.529Z,53.80
2018-09-20T11:27:10.509Z,56.20
2018-09-20T11:29:42.081Z,55.60
2018-09-20T11:32:13.871Z,56.00
2018-09-20T11:34:45.335Z,54.00
2018-09-20T11:37:17.635Z,53.80
2018-09-20T11:39:49.645Z,52.60
2018-09-20T11:42:21.400Z,57.40
2018-09-20T11:44:53.262Z,58.20
2018-09-20T11:47:25.099Z,59.20
2018-09-20T11:49:56.726Z,61.60
2018-09-20T11:52:28.895Z,59.80
2018-09-20T11:55:01.005Z,59.00
2018-09-20T11:57:32.971Z,59.00
2018-09-20T12:00:04.703Z,63.60
2018-09-20T12:02:36.660Z,61.60
2018-09-20T12:05:09.102Z,63.00
2018-09-20T12:07:40.918Z,65.00
2018-09-20T12:10:12.887Z,61.40
2018-09-20T12:12:44.582Z,62.80
2018-09-20T12:15:16.387Z,64.80
2018-09-20T12:17:48.432Z,64.40
2018-09-20T12:20:19.891Z,68.00
2018-09-20T12:22:51.731Z,67.00
2018-09-20T12:25:23.221Z,64.00
2018-09-20T12:27:55.245Z,57.40
2018-09-20T12:30:27.179Z,66.40
2018-09-20T12:32:59.123Z,66.40
2018-09-20T12:35:30.947Z,68.00
2018-09-20T12:38:02.886Z,68.80
2018-09-20T12:40:34.647Z,66.80
2018-09-20T12:43:06.702Z,67.20
2018-09-20T12:45:38.988Z,66.20
2018-09-20T12:48:11.046Z,67.20
2018-09-20T12:50:42.809Z,67.20
2018-09-20T12:53:14.904Z,68.40
2018-09-20T12:55:46.541Z,64.80
2018-09-20T12:58:18.922Z,65.80
2018-09-20T13:00:50.887Z,66.60
2018-09-20T13:03:22.711Z,57.80
2018-09-20T13:05:54.791Z,62.20
2018-09-20T13:08:26.495Z,65.00
2018-09-20T13:10:58.363Z,63.20
2018-09-20T13:13:30.380Z,70.00
2018-09-20T13:16:02.058Z,70.00
2018-09-20T13:18:33.879Z,75.00
2018-09-20T13:21:05.717Z,64.60
2018-09-20T13:23:37.901Z,71.80
2018-09-20T13:26:10.055Z,68.80
2018-09-20T13:28:41.757Z,67.20
2018-09-20T13:31:13.367Z,72.40
2018-09-20T13:33:45.184Z,69.00
2018-09-20T13:36:58.009Z,68.40
2018-09-20T13:39:29.845Z,79.00
2018-09-20T13:42:02.592Z,73.80
2018-09-20T13:44:34.801Z,75.40
2018-09-20T13:47:07.032Z,71.00
2018-09-20T13:49:39.085Z,75.00
2018-09-20T13:52:10.591Z,71.60
2018-09-20T13:54:42.466Z,74.60
2018-09-20T13:57:14.063Z,74.00
2018-09-20T13:59:45.930Z,75.00
2018-09-20T14:02:17.745Z,72.00
2018-09-20T14:04:49.756Z,73.80
2018-09-20T14:07:21.393Z,74.20
2018-09-20T14:09:53.059Z,74.40
2018-09-20T14:12:24.821Z,79.80
2018-09-20T14:14:56.896Z,86.60
2018-09-20T14:17:28.368Z,89.00
2018-09-20T14:20:00.107Z,85.40
2018-09-20T14:22:31.671Z,79.00
2018-09-20T14:25:03.073Z,81.00
2018-09-20T14:27:34.388Z,84.40
2018-09-20T14:30:05.762Z,83.00
2018-09-20T14:32:37.507Z,86.80
2018-09-20T14:35:09.233Z,80.00
2018-09-20T14:37:40.931Z,80.40
2018-09-20T14:40:12.793Z,77.40
2018-09-20T14:42:44.701Z,83.40
2018-09-20T14:45:16.846Z,79.40
2018-09-20T14:47:49.383Z,79.80
2018-09-20T14:50:22.004Z,82.60
2018-09-20T14:52:53.691Z,78.00
2018-09-20T14:55:25.447Z,79.20
2018-09-20T14:57:56.996Z,79.20
2018-09-20T15:00:29.063Z,76.20
2018-09-20T15:03:00.954Z,77.60
2018-09-20T15:05:33.188Z,78.00
2018-09-20T15:08:05.286Z,68.60
2018-09-20T15:10:37.326Z,59.20
2018-09-20T15:13:08.863Z,70.00
2018-09-20T15:15:41.150Z,80.40
2018-09-20T15:18:13.015Z,88.40
2018-09-20T15:20:44.914Z,89.60
2018-09-20T15:23:16.947Z,80.40
2018-09-20T15:25:48.896Z,81.20
2018-09-20T15:28:20.878Z,88.40
2018-09-20T15:30:54.181Z,88.80
2018-09-20T15:33:26.296Z,82.60
2018-09-20T15:35:58.161Z,84.40
2018-09-20T15:38:30.160Z,75.20
2018-09-20T15:41:02.330Z,76.40
2018-09-20T15:43:33.936Z,75.20
2018-09-20T15:46:05.835Z,76.40
2018-09-20T15:48:37.631Z,76.20
2018-09-20T15:51:09.435Z,75.20
2018-09-20T15:53:41.367Z,77.40
2018-09-20T15:56:13.322Z,75.00
2018-09-20T15:58:44.868Z,75.60
2018-09-20T16:01:16.801Z,73.20
2018-09-20T16:03:48.795Z,73.80
2018-09-20T16:06:21.144Z,71.20
2018-09-20T16:08:53.275Z,74.20
2018-09-20T16:11:25.071Z,74.40
2018-09-20T16:13:57.272Z,72.20
2018-09-20T16:16:29.459Z,73.40
2018-09-20T16:19:01.421Z,73.80
2018-09-20T16:21:33.415Z,72.80
2018-09-20T16:24:05.287Z,71.20
2018-09-20T16:26:37.229Z,70.40
2018-09-20T16:29:30.116Z,67.00
2018-09-20T16:32:28.900Z,68.20
2018-09-20T16:35:15.525Z,70.00
2018-09-20T16:38:03.687Z,70.80
2018-09-20T16:40:38.247Z,69.00
2018-09-20T16:43:10.083Z,65.80
2018-09-20T16:45:41.702Z,71.20
2018-09-20T16:48:13.719Z,67.20
2018-09-20T16:50:45.569Z,69.20
2018-09-20T16:53:17.469Z,69.60
2018-09-20T16:55:49.553Z,67.60
2018-09-20T16:58:21.525Z,70.40
2018-09-20T17:00:53.422Z,72.00
2018-09-20T17:03:25.149Z,70.60
2018-09-20T17:05:57.169Z,69.60
2018-09-20T17:08:28.890Z,71.20
2018-09-20T17:11:00.636Z,69.60
2018-09-20T17:13:32.459Z,68.60
2018-09-20T17:16:06.190Z,68.40
2018-09-20T17:18:38.104Z,70.40
2018-09-20T17:21:10.522Z,68.00
2018-09-20T17:23:42.498Z,70.60
2018-09-20T17:26:14.439Z,70.40
2018-09-20T17:28:46.522Z,73.80
2018-09-20T17:31:18.133Z,68.40
2018-09-20T17:33:50.461Z,69.00
2018-09-20T17:36:22.839Z,71.80
2018-09-20T17:38:55.954Z,70.20
2018-09-20T17:41:30.948Z,68.20
2018-09-20T17:44:07.394Z,68.40
2018-09-20T17:46:39.199Z,68.80
2018-09-20T17:49:11.160Z,70.20
2018-09-20T17:51:43.444Z,69.20
2018-09-20T17:54:16.296Z,68.60
2018-09-20T17:56:48.959Z,71.00
2018-09-20T17:59:20.525Z,67.80
2018-09-20T18:01:52.236Z,67.40
2018-09-20T18:04:23.895Z,69.20
2018-09-20T18:06:55.994Z,69.00
2018-09-20T18:09:27.511Z,69.00
2018-09-20T18:11:59.203Z,69.40
2018-09-20T18:14:31.332Z,69.00
2018-09-20T18:17:02.980Z,64.60
2018-09-20T18:19:35.936Z,67.80
2018-09-20T18:22:07.888Z,57.20
2018-09-20T18:24:39.748Z,59.60
2018-09-20T18:27:11.639Z,63.40
2018-09-20T18:29:43.459Z,62.40
2018-09-20T18:32:15.318Z,66.00
2018-09-20T18:34:47.829Z,64.40
2018-09-20T18:37:19.534Z,63.60
2018-09-20T18:39:51.287Z,68.60
2018-09-20T18:42:23.007Z,66.40
2018-09-20T18:44:54.885Z,65.60
2018-09-20T18:47:26.770Z,66.80
2018-09-20T18:49:58.287Z,67.60
2018-09-20T18:52:29.850Z,64.60
2018-09-20T18:55:01.697Z,65.40
2018-09-20T18:57:33.598Z,67.60
2018-09-20T19:00:05.282Z,67.20
2018-09-20T19:02:36.963Z,49.80
2018-09-20T19:05:09.142Z,50.20
2018-09-20T19:07:40.955Z,63.00
2018-09-20T19:10:12.845Z,51.40
2018-09-20T19:12:44.907Z,56.40
2018-09-20T19:15:16.976Z,56.80
2018-09-20T19:17:48.757Z,59.20
2018-09-20T19:20:20.653Z,62.00
2018-09-20T19:22:52.336Z,65.20
2018-09-20T19:25:24.376Z,68.20
2018-09-20T19:27:55.773Z,63.40
2018-09-20T19:30:27.747Z,67.80
2018-09-20T19:32:59.763Z,65.40
2018-09-20T19:35:31.620Z,60.60
2018-09-20T19:38:03.935Z,65.00
2018-09-20T19:40:35.820Z,67.80
2018-09-20T19:43:07.843Z,69.60
2018-09-20T19:45:39.604Z,66.60
2018-09-20T19:48:11.352Z,62.80
2018-09-20T19:50:43.391Z,67.60
2018-09-20T19:53:15.023Z,65.60
2018-09-20T19:55:47.119Z,69.20
2018-09-20T19:58:18.720Z,70.00
2018-09-20T20:00:51.025Z,67.20
2018-09-20T20:03:22.621Z,66.00
2018-09-20T20:05:54.570Z,68.40
2018-09-20T20:08:26.445Z,65.20
2018-09-20T20:10:58.553Z,67.00
2018-09-20T20:13:30.581Z,70.80
2018-09-20T20:16:02.609Z,68.00
2018-09-20T20:18:34.197Z,68.40
2018-09-20T20:21:05.955Z,69.20
2018-09-20T20:23:37.969Z,71.20
2018-09-20T20:26:09.866Z,68.00
2018-09-20T20:28:41.925Z,66.80
2018-09-20T20:31:13.586Z,70.00
2018-09-20T20:33:45.376Z,69.80
2018-09-20T20:36:17.325Z,68.00
2018-09-20T20:38:49.338Z,68.80
2018-09-20T20:41:21.203Z,68.80
2018-09-20T20:43:53.344Z,68.40
2018-09-20T20:46:25.272Z,64.40
2018-09-20T20:48:56.950Z,72.40
2018-09-20T20:51:29.032Z,72.60
2018-09-20T20:54:00.532Z,66.40
2018-09-20T20:56:32.544Z,67.00
2018-09-20T20:59:04.014Z,72.80
2018-09-20T21:01:35.978Z,68.60
2018-09-20T21:04:07.838Z,69.40
2018-09-20T21:06:40.042Z,72.00
2018-09-20T21:09:12.649Z,66.20
2018-09-20T21:11:44.353Z,72.80
2018-09-20T21:14:16.152Z,75.80
2018-09-20T21:16:48.162Z,73.60
2018-09-20T21:19:19.816Z,72.00
2018-09-20T21:21:51.474Z,70.40
2018-09-20T21:24:23.376Z,73.40
2018-09-20T21:26:54.979Z,76.40
2018-09-20T21:29:26.617Z,73.00
2018-09-20T21:31:58.409Z,75.60
2018-09-20T21:34:30.246Z,76.20
2018-09-20T21:37:01.990Z,73.60
2018-09-20T21:39:34.926Z,70.40
2018-09-20T21:42:06.698Z,67.20
2018-09-20T21:44:38.467Z,72.60
2018-09-20T21:47:10.565Z,76.60
2018-09-20T21:49:42.268Z,68.00
2018-09-20T21:52:14.078Z,74.60
2018-09-20T21:54:45.800Z,74.40
2018-09-20T21:57:17.826Z,71.00
2018-09-20T21:59:49.964Z,78.20
2018-09-20T22:02:26.237Z,70.60
2018-09-20T22:04:58.073Z,71.80
2018-09-20T22:07:29.903Z,72.40
2018-09-20T22:10:01.437Z,68.60
2018-09-20T22:12:33.533Z,70.00
2018-09-20T22:15:05.289Z,74.40
2018-09-20T22:17:37.173Z,71.40
2018-09-20T22:20:09.250Z,72.20
2018-09-20T22:22:41.350Z,69.20
2018-09-20T22:25:13.516Z,70.20
2018-09-20T22:27:45.430Z,71.20
2018-09-20T22:30:17.332Z,71.40
2018-09-20T22:32:49.646Z,70.40
2018-09-20T22:35:21.458Z,70.00
2018-09-20T22:37:53.090Z,64.40
2018-09-20T22:40:25.041Z,71.80
2018-09-20T22:42:56.793Z,73.00
2018-09-20T22:45:28.756Z,74.20
2018-09-20T22:48:00.338Z,72.20
2018-09-20T22:50:32.362Z,67.00
2018-09-20T22:53:04.504Z,72.40
2018-09-20T22:55:36.001Z,68.40
2018-09-20T22:58:07.987Z,69.60
2018-09-20T23:00:39.624Z,69.40
2018-09-20T23:03:11.349Z,66.60
2018-09-20T23:05:43.319Z,68.00
2018-09-20T23:08:15.346Z,69.20
2018-09-20T23:10:47.259Z,71.80
2018-09-20T23:13:18.931Z,70.00
2018-09-20T23:15:50.756Z,68.00
2018-09-20T23:18:22.921Z,72.40
2018-09-20T23:20:55.423Z,69.20
2018-09-20T23:23:27.127Z,69.60
2018-09-20T23:25:59.108Z,68.40
2018-09-20T23:28:30.896Z,64.20
2018-09-20T23:31:02.461Z,68.20
2018-09-20T23:33:34.229Z,64.40
2018-09-20T23:36:05.650Z,63.80
2018-09-20T23:38:37.586Z,67.40
2018-09-20T23:41:09.701Z,64.40
2018-09-20T23:43:41.450Z,60.40
2018-09-20T23:46:13.145Z,65.20
2018-09-20T23:48:44.988Z,70.20
2018-09-20T23:51:16.843Z,60.00
2018-09-20T23:53:48.875Z,62.40
2018-09-20T23:56:20.432Z,63.60
2018-09-20T23:58:52.181Z,60.20
